If you wish to contribute or participate in the discussions about articles you are invited to join SKYbrary as a registered user

 Actions

Richmond Airport

From SKYbrary Wiki

YRMD
Airport
ICAO: YRMD – IATA: RCM
Summary
Name Richmond Airport
Region Asia and Pacific
Territory Australia AU.gif
Location Richmond, Queensland
Serving Richmond
Elevation 206.045 m
676 ft
676 ft206.045 m
Coordinates 20° 42' 14.00" S, 143° 7' 0.01" E
Runways
Designator Length Width Surface ROPS
9/27 1524 m5,000 ft
30 m98.425 ft
ASP /


METAR
Observation YRMD 191000Z AUTO 15009KT 9999 // NCD 13/02 Q1018
Station Richmond Airport
Date/Time 19 June 2019 10:00:00
Wind direction 150°
Wind speed 09 kts
Lowest cloud amount no clouds detected
Temperature 13°C
Dew point 2°C
Humidity 47%
QNH 1018 hPa
Weather condition n/a

Richmond Airport is 3.2 km1.728 nm
3,200 m
10,498.688 ft
northwest of Richmond, Queensland, Australia.

Climatology

Temperate Marine climate/Oceanic climate (Köppen climate classification Cfb). Moderately cool summer and comparatively warm winter.

Maps

Terrain

Loading map...

Airport Layout

Loading map...


Accidents & Serious Incidents at or in vicinity of YRMD

None on SKYbrary